createdAt,value
2022-11-30T00:01:30.363Z,8.83
2022-11-30T00:03:57.983Z,8.51
2022-11-30T00:06:26.032Z,8.45
2022-11-30T00:08:57.427Z,8.56
2022-11-30T00:11:26.740Z,8.61
2022-11-30T00:13:54.010Z,8.77
2022-11-30T00:16:21.670Z,8.68
2022-11-30T00:18:49.203Z,8.46
2022-11-30T00:21:16.509Z,8.47
2022-11-30T00:23:45.188Z,8.38
2022-11-30T00:26:15.242Z,8.36
2022-11-30T00:28:42.489Z,8.46
2022-11-30T00:31:14.471Z,8.57
2022-11-30T00:33:42.013Z,8.64
2022-11-30T00:36:12.478Z,8.60
2022-11-30T00:38:39.908Z,8.55
2022-11-30T00:41:07.243Z,8.59
2022-11-30T00:43:34.657Z,8.41
2022-11-30T00:46:02.024Z,8.48
2022-11-30T00:48:29.372Z,8.83
2022-11-30T00:50:56.866Z,8.76
2022-11-30T00:53:24.062Z,8.43
2022-11-30T00:55:51.290Z,8.31
2022-11-30T00:58:18.767Z,8.25
2022-11-30T01:00:46.179Z,8.23
2022-11-30T01:03:13.960Z,8.25
2022-11-30T01:05:42.039Z,8.50
2022-11-30T01:08:10.799Z,8.45
2022-11-30T01:10:39.898Z,8.37
2022-11-30T01:13:07.652Z,8.58
2022-11-30T01:15:40.144Z,8.45
2022-11-30T01:18:07.576Z,8.27
2022-11-30T01:20:35.103Z,8.35
2022-11-30T01:23:02.459Z,8.44
2022-11-30T01:25:29.720Z,8.47
2022-11-30T01:27:56.942Z,8.34
2022-11-30T01:30:24.311Z,8.28
2022-11-30T01:32:51.473Z,8.05
2022-11-30T01:35:18.667Z,7.73
2022-11-30T01:37:47.290Z,7.79
2022-11-30T01:40:14.592Z,7.78
2022-11-30T01:42:46.229Z,7.84
2022-11-30T01:45:14.383Z,8.17
2022-11-30T01:47:44.958Z,8.25
2022-11-30T01:50:20.865Z,8.14
2022-11-30T01:52:51.244Z,8.11
2022-11-30T01:55:29.912Z,8.26
2022-11-30T01:58:15.309Z,8.37
2022-11-30T02:00:46.299Z,8.25
2022-11-30T02:03:24.864Z,8.00
2022-11-30T02:05:52.231Z,7.90
2022-11-30T02:08:19.788Z,8.05
2022-11-30T02:10:53.906Z,8.29
2022-11-30T02:13:31.320Z,8.15
2022-11-30T02:15:58.674Z,8.07
2022-11-30T02:18:32.278Z,8.30
2022-11-30T02:21:14.420Z,8.16
2022-11-30T02:23:55.157Z,8.25
2022-11-30T02:26:30.318Z,8.24
2022-11-30T02:29:14.311Z,7.97
2022-11-30T02:31:49.452Z,7.84
2022-11-30T02:34:17.754Z,7.87
2022-11-30T02:36:46.251Z,7.84
2022-11-30T02:39:13.549Z,8.13
2022-11-30T02:41:41.529Z,8.05
2022-11-30T02:44:10.495Z,7.79
2022-11-30T02:47:05.587Z,7.81
2022-11-30T02:49:55.371Z,7.94
2022-11-30T02:52:25.316Z,8.17
2022-11-30T02:54:54.064Z,7.85
2022-11-30T02:57:21.246Z,7.96
2022-11-30T02:59:48.661Z,8.00
2022-11-30T03:02:16.033Z,8.24
2022-11-30T03:04:43.397Z,8.31
2022-11-30T03:07:10.742Z,8.38
2022-11-30T03:09:38.000Z,8.27
2022-11-30T03:12:05.518Z,8.37
2022-11-30T03:14:32.839Z,8.15
2022-11-30T03:17:00.125Z,8.14
2022-11-30T03:19:27.367Z,8.09
2022-11-30T03:21:54.783Z,7.99
2022-11-30T03:24:24.388Z,7.89
2022-11-30T03:26:52.196Z,7.90
2022-11-30T03:29:19.428Z,8.09
2022-11-30T03:31:46.658Z,7.93
2022-11-30T03:34:14.140Z,7.72
2022-11-30T03:36:41.404Z,7.75
2022-11-30T03:39:09.489Z,7.74
2022-11-30T03:41:36.869Z,7.79
2022-11-30T03:44:04.239Z,7.68
2022-11-30T03:46:31.597Z,7.56
2022-11-30T03:48:58.949Z,7.57
2022-11-30T03:51:26.127Z,7.54
2022-11-30T03:53:53.331Z,7.59
2022-11-30T03:56:20.650Z,7.70
2022-11-30T03:58:47.876Z,7.71
2022-11-30T04:01:17.184Z,7.40
2022-11-30T04:03:44.785Z,7.36
2022-11-30T04:06:13.038Z,7.46
2022-11-30T04:08:40.578Z,7.18
2022-11-30T04:11:08.517Z,7.18
2022-11-30T04:13:36.918Z,7.09
2022-11-30T04:16:04.811Z,7.25
2022-11-30T04:18:33.520Z,7.24
2022-11-30T04:21:01.432Z,7.21
2022-11-30T04:23:34.858Z,7.23
2022-11-30T04:26:07.506Z,7.25
2022-11-30T04:28:35.338Z,7.20
2022-11-30T04:31:03.011Z,6.74
2022-11-30T04:33:30.703Z,6.77
2022-11-30T04:36:00.410Z,7.00
2022-11-30T04:38:28.242Z,6.91
2022-11-30T04:40:56.127Z,6.66
2022-11-30T04:43:23.963Z,6.87
2022-11-30T04:45:51.515Z,6.95
2022-11-30T04:48:19.138Z,6.77
2022-11-30T04:50:46.387Z,6.88
2022-11-30T04:53:13.675Z,6.79
2022-11-30T04:55:41.225Z,6.70
2022-11-30T04:58:08.504Z,6.55
2022-11-30T05:00:36.625Z,6.20
2022-11-30T05:03:03.883Z,6.25
2022-11-30T05:05:31.194Z,6.23
2022-11-30T05:07:59.379Z,6.19
2022-11-30T05:10:28.156Z,6.40
2022-11-30T05:12:56.373Z,6.60
2022-11-30T05:15:23.705Z,6.57
2022-11-30T05:17:51.106Z,6.55
2022-11-30T05:20:18.395Z,6.42
2022-11-30T05:22:45.590Z,6.61
2022-11-30T05:25:12.832Z,6.45
2022-11-30T05:27:40.099Z,6.55
2022-11-30T05:30:08.091Z,6.68
2022-11-30T05:32:35.527Z,6.60
2022-11-30T05:35:02.817Z,6.63
2022-11-30T05:37:30.265Z,6.70
2022-11-30T05:39:57.456Z,6.81
2022-11-30T05:42:24.979Z,6.70
2022-11-30T05:44:52.285Z,6.48
2022-11-30T05:47:19.670Z,6.41
2022-11-30T05:49:46.878Z,6.45
2022-11-30T05:52:14.148Z,6.47
2022-11-30T05:54:41.356Z,6.66
2022-11-30T05:57:08.724Z,6.63
2022-11-30T05:59:35.880Z,6.52
2022-11-30T06:02:03.179Z,6.49
2022-11-30T06:04:30.598Z,6.37
2022-11-30T06:06:57.824Z,6.51
2022-11-30T06:09:25.200Z,6.55
2022-11-30T06:11:52.372Z,6.26
2022-11-30T06:14:19.603Z,6.42
2022-11-30T06:16:46.978Z,6.51
2022-11-30T06:19:14.204Z,6.58
2022-11-30T06:21:41.493Z,6.40
2022-11-30T06:24:10.045Z,6.46
2022-11-30T06:26:37.337Z,6.61
2022-11-30T06:29:04.578Z,6.42
2022-11-30T06:31:32.044Z,6.74
2022-11-30T06:33:59.632Z,6.62
2022-11-30T06:36:31.291Z,6.67
2022-11-30T06:39:01.543Z,6.57
2022-11-30T06:41:28.803Z,6.99
2022-11-30T06:43:56.029Z,6.75
2022-11-30T06:46:23.916Z,6.52
2022-11-30T06:48:51.257Z,6.55
2022-11-30T06:51:19.215Z,6.81
2022-11-30T06:53:46.835Z,6.82
2022-11-30T06:56:14.089Z,6.78
2022-11-30T06:58:42.031Z,7.25
2022-11-30T07:01:12.443Z,7.31
2022-11-30T07:03:40.543Z,7.25
2022-11-30T07:06:12.694Z,7.57
2022-11-30T07:08:40.781Z,7.52
2022-11-30T07:11:09.183Z,7.42
2022-11-30T07:13:37.262Z,7.63
2022-11-30T07:16:05.998Z,7.35
2022-11-30T07:18:33.818Z,7.37
2022-11-30T07:21:02.487Z,7.69
2022-11-30T07:23:55.797Z,7.63
2022-11-30T07:26:24.695Z,7.70
2022-11-30T07:28:57.925Z,7.68
2022-11-30T07:31:35.825Z,7.55
2022-11-30T07:34:05.683Z,7.69
2022-11-30T07:36:33.136Z,7.85
2022-11-30T07:39:00.446Z,7.83
2022-11-30T07:41:27.737Z,7.91
2022-11-30T07:43:55.056Z,8.06
2022-11-30T07:46:22.320Z,7.92
2022-11-30T07:48:49.764Z,7.88
2022-11-30T07:51:19.855Z,7.75
2022-11-30T07:53:51.037Z,7.77
2022-11-30T07:56:19.676Z,7.78
2022-11-30T07:58:47.920Z,7.57
2022-11-30T08:01:21.945Z,7.47
2022-11-30T08:03:50.668Z,7.64
2022-11-30T08:06:25.912Z,7.56
2022-11-30T08:08:55.202Z,7.86
2022-11-30T08:11:26.412Z,7.80
2022-11-30T08:13:54.257Z,7.68
2022-11-30T08:16:24.077Z,8.23
2022-11-30T08:18:51.452Z,8.46
2022-11-30T08:21:21.188Z,8.33
2022-11-30T08:23:53.878Z,8.60
2022-11-30T08:26:23.360Z,8.80
2022-11-30T08:28:51.431Z,8.69
2022-11-30T08:31:21.925Z,8.58
2022-11-30T08:33:49.915Z,8.44
2022-11-30T08:36:19.806Z,8.04
2022-11-30T08:38:48.089Z,8.05
2022-11-30T08:41:21.258Z,8.11
2022-11-30T08:43:50.025Z,7.95
2022-11-30T08:46:49.626Z,8.08
2022-11-30T08:49:23.458Z,8.26
2022-11-30T08:52:17.134Z,8.35
2022-11-30T08:57:33.455Z,8.38
2022-11-30T09:00:00.706Z,8.41
2022-11-30T09:02:27.939Z,8.64
2022-11-30T09:04:55.411Z,8.80
2022-11-30T09:07:22.787Z,8.82
2022-11-30T09:09:50.100Z,8.70
2022-11-30T09:12:17.361Z,8.76
2022-11-30T09:14:45.864Z,8.71
2022-11-30T09:17:14.221Z,8.50
2022-11-30T09:19:41.511Z,8.15
2022-11-30T09:22:10.094Z,8.15
2022-11-30T09:24:38.284Z,8.22
2022-11-30T09:27:05.510Z,8.33
2022-11-30T09:29:32.736Z,8.67
2022-11-30T09:32:00.445Z,8.76
2022-11-30T09:34:27.707Z,8.91
2022-11-30T09:36:55.430Z,8.92
2022-11-30T09:39:22.757Z,8.99
2022-11-30T09:42:08.324Z,9.01
2022-11-30T09:44:38.181Z,8.73
2022-11-30T09:47:08.631Z,8.43
2022-11-30T09:49:39.425Z,8.62
2022-11-30T09:52:12.977Z,8.70
2022-11-30T09:54:42.703Z,8.87
2022-11-30T09:57:35.205Z,8.62
2022-11-30T10:00:06.309Z,8.91
2022-11-30T10:02:40.045Z,9.13
2022-11-30T10:05:26.055Z,9.08
2022-11-30T10:08:04.937Z,8.89
2022-11-30T10:10:53.676Z,9.06
2022-11-30T10:14:05.347Z,8.79
2022-11-30T10:16:58.342Z,8.86
2022-11-30T10:19:51.594Z,8.49
2022-11-30T10:23:02.706Z,8.65
2022-11-30T10:25:54.550Z,9.00
2022-11-30T10:28:51.121Z,8.96
2022-11-30T10:31:20.919Z,9.02
2022-11-30T10:33:51.315Z,8.82
2022-11-30T10:36:29.335Z,8.90
2022-11-30T10:39:00.146Z,9.04
2022-11-30T10:41:47.485Z,8.93
2022-11-30T10:44:34.581Z,9.20
2022-11-30T10:47:03.320Z,9.18
2022-11-30T10:49:32.182Z,8.93
2022-11-30T10:52:03.844Z,8.86
2022-11-30T10:54:31.867Z,8.42
2022-11-30T10:57:01.832Z,8.40
2022-11-30T10:59:38.427Z,8.71
2022-11-30T11:02:35.433Z,8.88
2022-11-30T11:05:15.073Z,8.03
2022-11-30T11:07:55.247Z,8.27
2022-11-30T11:10:28.345Z,8.42
2022-11-30T11:12:55.906Z,8.63
2022-11-30T11:15:29.172Z,8.44
2022-11-30T11:18:21.322Z,8.65
2022-11-30T11:20:49.500Z,8.34
2022-11-30T11:23:28.750Z,8.27
2022-11-30T11:25:57.701Z,8.41
2022-11-30T11:28:25.470Z,8.55
2022-11-30T11:30:55.072Z,8.53
2022-11-30T11:33:25.015Z,8.89
2022-11-30T11:36:12.910Z,9.08
2022-11-30T11:38:46.077Z,9.20
2022-11-30T11:41:20.532Z,9.27
2022-11-30T11:44:22.735Z,8.90
2022-11-30T11:47:07.570Z,8.46
2022-11-30T11:49:36.686Z,8.25
2022-11-30T11:52:07.077Z,8.34
2022-11-30T11:54:49.693Z,8.57
2022-11-30T11:57:18.862Z,8.37
2022-11-30T12:00:01.295Z,8.58
2022-11-30T12:03:09.012Z,9.11
2022-11-30T12:05:36.136Z,9.09
2022-11-30T12:08:14.422Z,8.97
2022-11-30T12:10:52.263Z,8.63
2022-11-30T12:13:33.109Z,8.74
2022-11-30T12:16:15.598Z,8.56
2022-11-30T12:18:50.940Z,8.44
2022-11-30T12:21:27.199Z,8.38
2022-11-30T12:24:21.232Z,8.66
2022-11-30T12:27:02.536Z,8.87
2022-11-30T12:29:29.875Z,9.06
2022-11-30T12:32:17.411Z,9.02
2022-11-30T12:35:06.750Z,9.33
2022-11-30T12:37:47.857Z,9.08
2022-11-30T12:40:58.820Z,8.94
2022-11-30T12:43:45.829Z,9.27
2022-11-30T12:46:18.568Z,9.09
2022-11-30T12:48:45.900Z,9.17
2022-11-30T12:51:50.300Z,9.12
2022-11-30T12:54:22.831Z,9.32
2022-11-30T12:57:15.908Z,8.91
2022-11-30T13:00:21.803Z,8.86
2022-11-30T13:02:52.346Z,8.97
2022-11-30T13:05:24.791Z,9.02
2022-11-30T13:07:58.585Z,9.14
2022-11-30T13:10:31.889Z,8.89
2022-11-30T13:13:00.531Z,8.88
2022-11-30T13:15:30.952Z,9.19
2022-11-30T13:17:58.479Z,9.01
2022-11-30T13:20:39.600Z,9.25
2022-11-30T13:23:32.043Z,9.22
2022-11-30T13:26:27.245Z,9.20
2022-11-30T13:29:36.657Z,9.22
2022-11-30T13:32:27.526Z,9.47
2022-11-30T13:35:29.613Z,10.38
2022-11-30T13:41:07.802Z,9.74
2022-11-30T13:43:40.092Z,9.33
2022-11-30T13:46:19.542Z,9.59
2022-11-30T13:48:47.927Z,9.07
2022-11-30T13:51:36.429Z,9.37
2022-11-30T13:54:38.503Z,9.44
2022-11-30T13:57:38.063Z,9.70
2022-11-30T14:00:30.077Z,9.47
2022-11-30T14:03:18.292Z,9.43
2022-11-30T14:05:55.873Z,9.34
2022-11-30T14:08:24.380Z,9.26
2022-11-30T14:10:55.794Z,8.93
2022-11-30T14:13:31.220Z,8.87
2022-11-30T14:16:00.707Z,8.78
2022-11-30T14:18:48.210Z,8.97
2022-11-30T14:21:17.688Z,8.82
2022-11-30T14:24:21.197Z,8.90
2022-11-30T14:26:50.533Z,9.06
2022-11-30T14:29:20.488Z,9.17
2022-11-30T14:31:47.808Z,9.24
2022-11-30T14:34:20.140Z,9.35
2022-11-30T14:36:51.454Z,9.27
2022-11-30T14:39:42.605Z,9.00
2022-11-30T14:42:36.340Z,9.09
2022-11-30T14:45:04.100Z,9.02
2022-11-30T14:47:34.268Z,8.67
2022-11-30T14:50:02.879Z,8.64
2022-11-30T14:52:57.670Z,8.62
2022-11-30T14:55:46.211Z,8.64
2022-11-30T14:58:32.588Z,9.01
2022-11-30T15:00:59.921Z,9.18
2022-11-30T15:03:32.645Z,8.88
2022-11-30T15:06:04.792Z,8.75
2022-11-30T15:08:42.212Z,8.93
2022-11-30T15:11:12.266Z,8.98
2022-11-30T15:13:49.635Z,9.02
2022-11-30T15:16:20.464Z,8.71
2022-11-30T15:18:48.969Z,8.89
2022-11-30T15:21:23.927Z,9.10
2022-11-30T15:23:52.973Z,9.38
2022-11-30T15:26:38.277Z,9.59
2022-11-30T15:29:38.934Z,9.39
2022-11-30T15:32:08.367Z,9.45
2022-11-30T15:34:56.604Z,9.67
2022-11-30T15:37:32.059Z,9.34
2022-11-30T15:40:02.157Z,9.53
2022-11-30T15:42:39.571Z,9.37
2022-11-30T15:45:19.059Z,9.37
2022-11-30T15:47:46.719Z,9.44
2022-11-30T15:50:37.933Z,9.31
2022-11-30T15:53:25.684Z,9.40
2022-11-30T15:55:56.131Z,9.44
2022-11-30T15:58:45.281Z,9.49
2022-11-30T16:01:22.800Z,9.41
2022-11-30T16:03:56.243Z,8.95
2022-11-30T16:06:44.208Z,9.23
2022-11-30T16:09:43.773Z,9.17
2022-11-30T16:12:22.932Z,9.22
2022-11-30T16:14:50.272Z,9.12
2022-11-30T16:17:17.564Z,9.16
2022-11-30T16:19:45.471Z,8.97
2022-11-30T16:22:13.994Z,9.12
2022-11-30T16:24:41.544Z,9.28
2022-11-30T16:27:19.391Z,9.44
2022-11-30T16:29:52.042Z,9.62
2022-11-30T16:32:19.786Z,9.52
2022-11-30T16:34:48.013Z,9.36
2022-11-30T16:37:15.817Z,8.65
2022-11-30T16:39:43.312Z,8.74
2022-11-30T16:42:12.590Z,8.92
2022-11-30T16:44:39.780Z,8.68
2022-11-30T16:47:07.225Z,8.60
2022-11-30T16:49:34.395Z,8.78
2022-11-30T16:52:01.848Z,8.76
2022-11-30T16:54:29.057Z,8.75
2022-11-30T16:56:56.255Z,9.01
2022-11-30T16:59:23.516Z,8.58
2022-11-30T17:01:53.939Z,8.36
2022-11-30T17:04:24.019Z,8.55
2022-11-30T17:06:53.672Z,8.84
2022-11-30T17:09:23.366Z,8.72
2022-11-30T17:11:51.425Z,8.76
2022-11-30T17:14:19.693Z,8.56
2022-11-30T17:16:46.998Z,8.87
2022-11-30T17:19:14.584Z,8.75
2022-11-30T17:21:42.977Z,8.57
2022-11-30T17:24:10.526Z,8.52
2022-11-30T17:26:37.823Z,8.47
2022-11-30T17:29:05.050Z,8.69
2022-11-30T17:31:32.531Z,8.65
2022-11-30T17:34:00.567Z,8.61
2022-11-30T17:36:29.424Z,8.34
2022-11-30T17:38:57.642Z,8.34
2022-11-30T17:41:24.855Z,8.44
2022-11-30T17:43:52.218Z,8.52
2022-11-30T17:46:20.991Z,8.47
2022-11-30T17:48:49.648Z,8.63
2022-11-30T17:51:17.265Z,8.57
2022-11-30T17:53:44.683Z,8.47
2022-11-30T17:56:14.517Z,8.44
2022-11-30T17:58:44.456Z,8.30
2022-11-30T18:01:38.386Z,8.56
2022-11-30T18:04:05.956Z,8.51
2022-11-30T18:06:35.712Z,8.28
2022-11-30T18:09:03.003Z,8.25
2022-11-30T18:11:30.305Z,8.31
2022-11-30T18:14:00.366Z,8.16
2022-11-30T18:16:30.882Z,8.08
2022-11-30T18:18:59.371Z,8.15
2022-11-30T18:21:29.459Z,8.17
2022-11-30T18:23:57.169Z,8.10
2022-11-30T18:26:25.582Z,7.91
2022-11-30T18:28:57.971Z,7.84
2022-11-30T18:31:26.149Z,8.02
2022-11-30T18:34:02.533Z,8.05
2022-11-30T18:36:30.057Z,8.24
2022-11-30T18:38:57.366Z,8.18
2022-11-30T18:41:26.256Z,8.19
2022-11-30T18:43:53.796Z,8.14
2022-11-30T18:46:21.443Z,8.18
2022-11-30T18:48:50.451Z,8.31
2022-11-30T18:51:20.343Z,8.32
2022-11-30T18:53:47.794Z,8.36
2022-11-30T18:56:17.872Z,8.35
2022-11-30T18:58:46.559Z,8.34
2022-11-30T19:01:16.889Z,8.40
2022-11-30T19:03:50.730Z,8.48
2022-11-30T19:06:18.314Z,8.49
2022-11-30T19:08:47.636Z,8.38
2022-11-30T19:11:15.866Z,8.38
2022-11-30T19:13:43.848Z,8.58
2022-11-30T19:16:13.909Z,8.35
2022-11-30T19:18:41.355Z,8.29
2022-11-30T19:21:13.544Z,8.15
2022-11-30T19:23:40.911Z,7.94
2022-11-30T19:26:10.163Z,7.99
2022-11-30T19:28:38.685Z,7.75
2022-11-30T19:31:10.870Z,7.69
2022-11-30T19:33:39.649Z,7.85
2022-11-30T19:36:09.825Z,7.94
2022-11-30T19:38:36.981Z,7.99
2022-11-30T19:41:08.451Z,7.94
2022-11-30T19:43:36.199Z,7.76
2022-11-30T19:46:08.446Z,7.68
2022-11-30T19:48:36.205Z,7.60
2022-11-30T19:51:10.961Z,7.68
2022-11-30T19:53:43.686Z,7.98
2022-11-30T19:56:12.321Z,7.95
2022-11-30T19:58:39.814Z,8.02
2022-11-30T20:01:12.092Z,7.98
2022-11-30T20:03:39.517Z,8.00
2022-11-30T20:06:06.997Z,7.84
2022-11-30T20:08:34.288Z,7.91
2022-11-30T20:11:06.051Z,7.89
2022-11-30T20:13:33.266Z,7.87
2022-11-30T20:16:07.225Z,7.80
2022-11-30T20:18:34.861Z,7.90
2022-11-30T20:21:13.697Z,7.83
2022-11-30T20:23:41.860Z,7.88
2022-11-30T20:26:24.432Z,7.95
2022-11-30T20:28:52.694Z,8.09
2022-11-30T20:31:21.473Z,8.11
2022-11-30T20:33:49.464Z,8.13
2022-11-30T20:36:18.664Z,8.12
2022-11-30T20:38:46.438Z,8.10
2022-11-30T20:41:19.128Z,8.21
2022-11-30T20:43:46.748Z,8.15
2022-11-30T20:46:17.938Z,8.13
2022-11-30T20:48:45.659Z,8.27
2022-11-30T20:51:30.188Z,7.75
2022-11-30T20:54:06.826Z,7.66
2022-11-30T20:56:36.774Z,7.82
2022-11-30T20:59:06.724Z,7.91
2022-11-30T21:01:34.877Z,7.98
2022-11-30T21:04:02.235Z,7.84
2022-11-30T21:06:30.439Z,7.80
2022-11-30T21:08:58.097Z,7.84
2022-11-30T21:11:28.907Z,8.12
2022-11-30T21:13:56.959Z,8.12
2022-11-30T21:16:28.449Z,7.83
2022-11-30T21:19:00.226Z,7.79
2022-11-30T21:21:30.747Z,7.80
2022-11-30T21:24:02.728Z,7.91
2022-11-30T21:26:36.882Z,7.74
2022-11-30T21:29:14.129Z,7.74
2022-11-30T21:31:41.587Z,7.77
2022-11-30T21:34:08.932Z,7.79
2022-11-30T21:36:36.259Z,7.64
2022-11-30T21:39:06.632Z,7.83
2022-11-30T21:41:36.244Z,7.72
2022-11-30T21:44:04.412Z,7.82
2022-11-30T21:46:32.009Z,7.89
2022-11-30T21:48:59.320Z,7.85
2022-11-30T21:51:28.311Z,8.05
2022-11-30T21:53:58.817Z,8.28
2022-11-30T21:56:28.455Z,8.07
2022-11-30T21:58:56.724Z,7.98
2022-11-30T22:01:35.736Z,8.15
2022-11-30T22:04:04.890Z,8.23
2022-11-30T22:06:33.905Z,8.23
2022-11-30T22:09:03.220Z,8.17
2022-11-30T22:11:31.012Z,8.11
2022-11-30T22:13:58.460Z,8.02
2022-11-30T22:16:32.497Z,7.98
2022-11-30T22:19:03.176Z,7.99
2022-11-30T22:21:31.068Z,8.12
2022-11-30T22:24:06.747Z,8.31
2022-11-30T22:26:36.428Z,8.04
2022-11-30T22:29:05.659Z,8.24
2022-11-30T22:31:35.404Z,8.21
2022-11-30T22:34:03.062Z,8.22
2022-11-30T22:36:31.708Z,8.25
2022-11-30T22:39:00.926Z,8.29
2022-11-30T22:41:28.851Z,8.28
2022-11-30T22:43:57.019Z,8.11
2022-11-30T22:46:26.619Z,7.99
2022-11-30T22:48:54.474Z,8.06
2022-11-30T22:51:23.633Z,8.15
2022-11-30T22:53:52.073Z,8.34
2022-11-30T22:56:22.036Z,8.27
2022-11-30T22:58:51.039Z,8.22
2022-11-30T23:01:20.797Z,8.05
2022-11-30T23:03:49.196Z,7.93
2022-11-30T23:06:17.850Z,7.84
2022-11-30T23:08:46.151Z,7.75
2022-11-30T23:11:16.014Z,7.77
2022-11-30T23:13:43.746Z,7.79
2022-11-30T23:16:13.052Z,7.76
2022-11-30T23:18:45.821Z,7.71
2022-11-30T23:21:15.167Z,7.76
2022-11-30T23:23:43.751Z,7.72
2022-11-30T23:26:16.262Z,8.04
2022-11-30T23:28:44.957Z,7.59
2022-11-30T23:31:34.652Z,7.56
2022-11-30T23:34:12.404Z,7.65
2022-11-30T23:36:39.674Z,7.50
2022-11-30T23:39:11.555Z,7.54
2022-11-30T23:41:39.182Z,7.57
2022-11-30T23:44:07.335Z,7.72
2022-11-30T23:46:34.827Z,7.50
2022-11-30T23:49:02.588Z,7.43
2022-11-30T23:51:29.958Z,7.43
2022-11-30T23:53:57.124Z,7.35
2022-11-30T23:56:24.583Z,7.46
2022-11-30T23:58:52.333Z,7.38
